createdAt,value
2023-05-25T00:01:01.076Z,16.10
2023-05-25T00:02:35.038Z,16.08
2023-05-25T00:04:07.333Z,16.06
2023-05-25T00:05:40.193Z,16.04
2023-05-25T00:07:12.351Z,16.03
2023-05-25T00:08:46.189Z,16.03
2023-05-25T00:10:18.276Z,16.01
2023-05-25T00:11:50.596Z,15.98
2023-05-25T00:13:22.734Z,15.92
2023-05-25T00:14:54.894Z,15.88
2023-05-25T00:16:27.295Z,15.84
2023-05-25T00:17:59.530Z,15.82
2023-05-25T00:19:34.725Z,15.84
2023-05-25T00:21:07.747Z,15.84
2023-05-25T00:22:40.042Z,15.86
2023-05-25T00:24:12.385Z,15.87
2023-05-25T00:25:44.837Z,15.81
2023-05-25T00:27:17.307Z,15.82
2023-05-25T00:28:49.495Z,15.76
2023-05-25T00:30:21.715Z,15.73
2023-05-25T00:31:54.517Z,15.72
2023-05-25T00:33:26.665Z,15.67
2023-05-25T00:34:58.774Z,15.63
2023-05-25T00:36:30.958Z,15.62
2023-05-25T00:39:42.759Z,15.51
2023-05-25T00:41:17.627Z,15.59
2023-05-25T00:42:49.828Z,15.53
2023-05-25T00:44:22.227Z,15.52
2023-05-25T00:45:55.052Z,15.50
2023-05-25T00:47:28.156Z,15.47
2023-05-25T00:49:00.385Z,15.40
2023-05-25T00:50:43.079Z,15.43
2023-05-25T00:52:16.046Z,15.38
2023-05-25T00:53:48.219Z,15.35
2023-05-25T00:55:20.741Z,15.32
2023-05-25T00:57:06.340Z,15.34
2023-05-25T00:58:41.689Z,15.28
2023-05-25T01:00:15.124Z,15.21
2023-05-25T01:01:48.108Z,15.20
2023-05-25T01:03:22.364Z,15.13
2023-05-25T01:04:55.414Z,15.12
2023-05-25T01:06:32.367Z,15.09
2023-05-25T01:08:05.916Z,15.03
2023-05-25T01:09:42.592Z,15.05
2023-05-25T01:11:14.883Z,15.01
2023-05-25T01:12:47.272Z,15.00
2023-05-25T01:14:22.416Z,14.98
2023-05-25T01:15:54.584Z,14.97
2023-05-25T01:17:29.504Z,14.96
2023-05-25T01:19:01.721Z,14.96
2023-05-25T01:20:34.127Z,14.90
2023-05-25T01:22:09.192Z,14.89
2023-05-25T01:23:48.701Z,14.87
2023-05-25T01:25:23.557Z,14.81
2023-05-25T01:27:10.591Z,14.79
2023-05-25T01:28:47.749Z,14.74
2023-05-25T01:30:20.576Z,14.70
2023-05-25T01:31:54.846Z,14.75
2023-05-25T01:33:28.267Z,14.74
2023-05-25T01:35:00.314Z,14.76
2023-05-25T01:36:33.609Z,14.69
2023-05-25T01:38:06.260Z,14.68
2023-05-25T01:39:38.721Z,14.65
2023-05-25T01:41:10.960Z,14.62
2023-05-25T01:42:43.227Z,14.58
2023-05-25T01:44:15.948Z,14.56
2023-05-25T01:45:48.396Z,14.54
2023-05-25T01:47:33.712Z,14.55
2023-05-25T01:49:28.481Z,14.52
2023-05-25T01:51:07.540Z,14.47
2023-05-25T01:52:44.445Z,14.44
2023-05-25T01:54:20.601Z,14.41
2023-05-25T01:56:04.814Z,14.36
2023-05-25T01:57:38.473Z,14.33
2023-05-25T01:59:11.472Z,14.32
2023-05-25T02:00:43.727Z,14.28
2023-05-25T02:02:19.095Z,14.30
2023-05-25T02:03:52.347Z,14.28
2023-05-25T02:05:24.479Z,14.23
2023-05-25T02:06:57.192Z,14.20
2023-05-25T02:08:29.430Z,14.18
2023-05-25T02:10:01.675Z,14.15
2023-05-25T02:11:36.993Z,14.13
2023-05-25T02:13:09.123Z,14.10
2023-05-25T02:14:41.701Z,14.07
2023-05-25T02:16:13.920Z,14.05
2023-05-25T02:17:46.112Z,14.05
2023-05-25T02:19:18.473Z,14.07
2023-05-25T02:20:50.736Z,14.06
2023-05-25T02:22:23.164Z,14.06
2023-05-25T02:23:55.392Z,14.03
2023-05-25T02:25:27.628Z,13.99
2023-05-25T02:26:59.797Z,13.96
2023-05-25T02:28:31.975Z,13.93
2023-05-25T02:30:04.524Z,13.91
2023-05-25T02:31:39.211Z,13.91
2023-05-25T02:33:12.031Z,13.89
2023-05-25T02:34:44.176Z,13.85
2023-05-25T02:36:16.898Z,13.80
2023-05-25T02:37:51.131Z,13.80
2023-05-25T02:39:26.839Z,13.77
2023-05-25T02:40:58.960Z,13.74
2023-05-25T02:42:31.147Z,13.73
2023-05-25T02:44:03.477Z,13.72
2023-05-25T02:45:35.827Z,13.76
2023-05-25T02:47:08.203Z,13.76
2023-05-25T02:48:42.629Z,13.76
2023-05-25T02:50:14.859Z,13.73
2023-05-25T02:51:46.976Z,13.72
2023-05-25T02:53:19.193Z,13.71
2023-05-25T02:54:51.398Z,13.72
2023-05-25T02:56:23.677Z,13.70
2023-05-25T02:57:55.954Z,13.70
2023-05-25T02:59:28.205Z,13.67
2023-05-25T03:01:00.687Z,13.66
2023-05-25T03:02:33.205Z,13.65
2023-05-25T03:04:05.516Z,13.65
2023-05-25T03:05:38.890Z,13.66
2023-05-25T03:07:10.896Z,13.69
2023-05-25T03:08:43.176Z,13.65
2023-05-25T03:10:15.431Z,13.64
2023-05-25T03:11:47.728Z,13.65
2023-05-25T03:13:19.919Z,13.64
2023-05-25T03:14:52.089Z,13.64
2023-05-25T03:16:24.291Z,13.62
2023-05-25T03:18:01.576Z,13.60
2023-05-25T03:19:34.005Z,13.62
2023-05-25T03:21:06.651Z,13.64
2023-05-25T03:22:38.829Z,13.63
2023-05-25T03:24:11.024Z,13.65
2023-05-25T03:25:43.572Z,13.63
2023-05-25T03:27:15.896Z,13.62
2023-05-25T03:28:48.082Z,13.62
2023-05-25T03:30:24.008Z,13.66
2023-05-25T03:31:56.215Z,13.66
2023-05-25T03:33:28.450Z,13.68
2023-05-25T03:35:00.792Z,13.68
2023-05-25T03:36:34.215Z,13.70
2023-05-25T03:38:06.223Z,13.76
2023-05-25T03:39:38.514Z,13.73
2023-05-25T03:41:10.765Z,13.74
2023-05-25T03:42:42.948Z,13.78
2023-05-25T03:44:15.095Z,13.77
2023-05-25T03:45:47.656Z,13.80
2023-05-25T03:47:20.408Z,13.84
2023-05-25T03:48:52.542Z,13.88
2023-05-25T03:50:24.747Z,13.92
2023-05-25T03:51:57.088Z,13.94
2023-05-25T03:53:29.281Z,13.90
2023-05-25T03:55:02.260Z,14.00
2023-05-25T03:56:34.398Z,14.06
2023-05-25T03:58:06.562Z,14.10
2023-05-25T03:59:38.691Z,14.13
2023-05-25T04:01:11.892Z,14.15
2023-05-25T04:02:44.124Z,14.17
2023-05-25T04:04:16.436Z,14.20
2023-05-25T04:05:48.640Z,14.26
2023-05-25T04:07:21.206Z,14.31
2023-05-25T04:08:53.614Z,14.39
2023-05-25T04:10:25.861Z,14.42
2023-05-25T04:11:58.005Z,14.49
2023-05-25T04:13:30.113Z,14.55
2023-05-25T04:15:04.961Z,14.60
2023-05-25T04:16:37.711Z,14.67
2023-05-25T04:18:12.426Z,14.73
2023-05-25T04:19:44.693Z,14.82
2023-05-25T04:21:17.154Z,14.86
2023-05-25T04:22:50.399Z,14.93
2023-05-25T04:24:23.067Z,14.99
2023-05-25T04:25:55.282Z,15.07
2023-05-25T04:27:28.821Z,15.14
2023-05-25T04:29:02.409Z,15.20
2023-05-25T04:30:36.160Z,15.25
2023-05-25T04:32:10.022Z,15.30
2023-05-25T04:33:42.243Z,15.30
2023-05-25T04:35:21.346Z,15.34
2023-05-25T04:36:54.191Z,15.36
2023-05-25T04:38:26.504Z,15.41
2023-05-25T04:39:58.841Z,15.40
2023-05-25T04:41:31.051Z,15.47
2023-05-25T04:43:05.514Z,15.50
2023-05-25T04:44:38.135Z,15.53
2023-05-25T04:46:10.363Z,15.61
2023-05-25T04:47:43.472Z,15.66
2023-05-25T04:49:17.336Z,15.74
2023-05-25T04:50:49.485Z,15.77
2023-05-25T04:52:21.616Z,15.82
2023-05-25T04:53:53.732Z,15.83
2023-05-25T04:55:26.063Z,15.84
2023-05-25T04:56:58.273Z,15.82
2023-05-25T04:58:30.489Z,15.84
2023-05-25T05:00:02.648Z,15.81
2023-05-25T05:01:41.429Z,15.80
2023-05-25T05:03:14.381Z,15.80
2023-05-25T05:04:46.640Z,15.77
2023-05-25T05:06:18.791Z,15.79
2023-05-25T05:07:51.055Z,15.81
2023-05-25T05:09:23.165Z,15.82
2023-05-25T05:10:55.462Z,15.85
2023-05-25T05:12:27.615Z,15.85
2023-05-25T05:13:59.800Z,15.86
2023-05-25T05:15:32.053Z,15.87
2023-05-25T05:17:04.998Z,15.88
2023-05-25T05:18:37.170Z,15.89
2023-05-25T05:20:09.702Z,15.91
2023-05-25T05:21:41.952Z,15.90
2023-05-25T05:23:14.244Z,15.91
2023-05-25T05:24:46.389Z,15.92
2023-05-25T05:26:18.628Z,15.96
2023-05-25T05:27:50.932Z,15.99
2023-05-25T05:29:23.223Z,16.03
2023-05-25T05:30:55.580Z,16.07
2023-05-25T05:32:27.756Z,16.10
2023-05-25T05:34:00.027Z,16.12
2023-05-25T05:35:32.331Z,16.13
2023-05-25T05:37:04.549Z,16.12
2023-05-25T05:38:37.611Z,16.12
2023-05-25T05:40:12.248Z,16.13
2023-05-25T05:41:45.880Z,16.13
2023-05-25T05:43:18.052Z,16.11
2023-05-25T05:44:50.236Z,16.12
2023-05-25T05:46:22.388Z,16.13
2023-05-25T05:47:54.589Z,16.14
2023-05-25T05:49:28.185Z,16.18
2023-05-25T05:51:00.328Z,16.19
2023-05-25T05:52:32.511Z,16.21
2023-05-25T05:54:05.344Z,16.25
2023-05-25T05:55:37.820Z,16.24
2023-05-25T05:57:09.993Z,16.24
2023-05-25T05:58:42.149Z,16.23
2023-05-25T06:00:15.157Z,16.24
2023-05-25T06:01:47.380Z,16.23
2023-05-25T06:03:19.668Z,16.24
2023-05-25T06:04:51.835Z,16.26
2023-05-25T06:06:24.069Z,16.28
2023-05-25T06:07:56.294Z,16.32
2023-05-25T06:09:28.418Z,16.33
2023-05-25T06:11:00.540Z,16.39
2023-05-25T06:12:32.774Z,16.43
2023-05-25T06:14:04.988Z,16.47
2023-05-25T06:15:37.387Z,16.51
2023-05-25T06:17:09.635Z,16.55
2023-05-25T06:18:42.034Z,16.58
2023-05-25T06:20:15.472Z,16.62
2023-05-25T06:21:49.960Z,16.68
2023-05-25T06:23:22.162Z,16.68
2023-05-25T06:24:54.540Z,16.68
2023-05-25T06:26:27.736Z,16.71
2023-05-25T06:27:59.975Z,16.73
2023-05-25T06:29:32.232Z,16.77
2023-05-25T06:31:04.420Z,16.82
2023-05-25T06:32:36.595Z,16.86
2023-05-25T06:34:08.768Z,16.91
2023-05-25T06:35:40.973Z,16.94
2023-05-25T06:37:13.174Z,16.96
2023-05-25T06:38:45.294Z,17.00
2023-05-25T06:40:18.440Z,17.04
2023-05-25T06:41:51.571Z,17.02
2023-05-25T06:43:23.780Z,17.10
2023-05-25T06:44:55.921Z,17.11
2023-05-25T06:46:28.163Z,17.14
2023-05-25T06:48:00.673Z,17.17
2023-05-25T06:49:33.258Z,17.26
2023-05-25T06:51:05.620Z,17.30
2023-05-25T06:52:37.797Z,17.36
2023-05-25T06:54:10.025Z,17.43
2023-05-25T06:55:42.379Z,17.51
2023-05-25T06:57:14.656Z,17.57
2023-05-25T06:58:46.797Z,17.63
2023-05-25T07:00:19.507Z,17.72
2023-05-25T07:01:51.893Z,17.78
2023-05-25T07:03:24.281Z,17.84
2023-05-25T07:04:56.468Z,17.90
2023-05-25T07:06:28.722Z,17.93
2023-05-25T07:08:00.866Z,17.99
2023-05-25T07:09:33.487Z,18.05
2023-05-25T07:11:05.774Z,18.10
2023-05-25T07:12:37.952Z,18.15
2023-05-25T07:14:10.109Z,18.17
2023-05-25T07:15:42.564Z,18.18
2023-05-25T07:17:17.263Z,18.19
2023-05-25T07:18:49.435Z,18.22
2023-05-25T07:20:22.569Z,18.25
2023-05-25T07:21:54.811Z,18.28
2023-05-25T07:23:26.965Z,18.31
2023-05-25T07:24:59.172Z,18.34
2023-05-25T07:26:32.541Z,18.38
2023-05-25T07:28:04.727Z,18.42
2023-05-25T07:29:36.920Z,18.38
2023-05-25T07:31:10.603Z,18.42
2023-05-25T07:32:42.957Z,18.44
2023-05-25T07:34:15.674Z,18.45
2023-05-25T07:35:47.787Z,18.46
2023-05-25T07:37:19.979Z,18.45
2023-05-25T07:38:52.126Z,18.45
2023-05-25T07:40:24.304Z,18.47
2023-05-25T07:41:56.433Z,18.50
2023-05-25T07:43:28.604Z,18.50
2023-05-25T07:45:01.733Z,18.50
2023-05-25T07:46:34.003Z,18.53
2023-05-25T07:48:08.072Z,18.55
2023-05-25T07:49:40.303Z,18.53
2023-05-25T07:51:12.598Z,18.55
2023-05-25T07:52:44.964Z,18.59
2023-05-25T07:54:17.134Z,18.59
2023-05-25T07:55:49.345Z,18.63
2023-05-25T07:57:21.901Z,18.65
2023-05-25T07:58:54.062Z,18.64
2023-05-25T08:00:26.228Z,18.67
2023-05-25T08:01:58.410Z,18.68
2023-05-25T08:03:47.407Z,18.69
2023-05-25T08:05:21.592Z,18.70
2023-05-25T08:06:53.959Z,18.75
2023-05-25T08:08:29.341Z,18.76
2023-05-25T08:10:01.698Z,18.79
2023-05-25T08:11:33.912Z,18.79
2023-05-25T08:13:06.418Z,18.81
2023-05-25T08:14:38.802Z,18.83
2023-05-25T08:16:11.059Z,18.85
2023-05-25T08:17:43.293Z,18.87
2023-05-25T08:19:15.449Z,18.90
2023-05-25T08:20:47.732Z,18.91
2023-05-25T08:22:20.018Z,18.92
2023-05-25T08:23:52.617Z,18.98
2023-05-25T08:25:24.723Z,18.99
2023-05-25T08:26:56.872Z,19.03
2023-05-25T08:28:28.999Z,19.07
2023-05-25T08:30:01.173Z,19.11
2023-05-25T08:31:33.945Z,19.16
2023-05-25T08:33:07.438Z,19.19
2023-05-25T08:34:39.819Z,19.21
2023-05-25T08:36:12.046Z,19.33
2023-05-25T08:37:44.528Z,19.37
2023-05-25T08:39:17.186Z,19.43
2023-05-25T08:40:56.831Z,19.52
2023-05-25T08:42:29.779Z,19.55
2023-05-25T08:44:06.759Z,19.58
2023-05-25T08:45:43.684Z,19.64
2023-05-25T08:47:18.432Z,19.66
2023-05-25T08:48:52.000Z,19.74
2023-05-25T08:50:25.873Z,19.77
2023-05-25T08:53:38.771Z,19.88
2023-05-25T08:55:11.657Z,19.96
2023-05-25T08:56:49.614Z,20.02
2023-05-25T08:58:26.190Z,20.04
2023-05-25T09:00:10.929Z,20.10
2023-05-25T09:01:46.761Z,20.15
2023-05-25T09:03:19.340Z,20.18
2023-05-25T09:04:51.554Z,20.24
2023-05-25T09:06:24.864Z,20.32
2023-05-25T09:07:56.920Z,20.42
2023-05-25T09:09:29.221Z,20.45
2023-05-25T09:11:02.689Z,20.53
2023-05-25T09:12:36.097Z,20.62
2023-05-25T09:14:09.045Z,20.66
2023-05-25T09:15:41.536Z,20.73
2023-05-25T09:17:18.021Z,20.84
2023-05-25T09:18:52.173Z,20.99
2023-05-25T09:20:25.314Z,21.07
2023-05-25T09:22:13.401Z,21.11
2023-05-25T09:23:47.051Z,21.20
2023-05-25T09:25:22.671Z,21.27
2023-05-25T09:26:54.885Z,21.33
2023-05-25T09:28:27.789Z,21.35
2023-05-25T09:30:01.575Z,21.33
2023-05-25T09:31:33.791Z,21.39
2023-05-25T09:33:12.136Z,21.47
2023-05-25T09:34:45.422Z,21.46
2023-05-25T09:36:18.348Z,21.55
2023-05-25T09:37:55.712Z,21.58
2023-05-25T09:39:29.253Z,21.57
2023-05-25T09:41:01.767Z,21.63
2023-05-25T09:42:37.287Z,21.71
2023-05-25T09:44:11.765Z,21.67
2023-05-25T09:45:44.625Z,21.69
2023-05-25T09:47:18.542Z,21.74
2023-05-25T09:48:51.877Z,21.84
2023-05-25T09:50:24.323Z,21.87
2023-05-25T09:51:56.726Z,21.95
2023-05-25T09:53:28.956Z,22.02
2023-05-25T09:55:05.392Z,22.10
2023-05-25T09:56:37.907Z,22.11
2023-05-25T09:58:10.104Z,22.16
2023-05-25T09:59:43.206Z,22.15
2023-05-25T10:01:19.347Z,22.22
2023-05-25T10:02:51.988Z,22.26
2023-05-25T10:04:24.236Z,22.31
2023-05-25T10:05:56.905Z,22.33
2023-05-25T10:07:29.583Z,22.39
2023-05-25T10:09:02.036Z,22.44
2023-05-25T10:10:34.303Z,22.48
2023-05-25T10:12:07.161Z,22.53
2023-05-25T10:13:39.934Z,22.57
2023-05-25T10:15:13.693Z,22.61
2023-05-25T10:16:50.847Z,22.67
2023-05-25T10:18:26.658Z,22.71
2023-05-25T10:20:01.836Z,22.77
2023-05-25T10:21:34.834Z,22.80
2023-05-25T10:23:18.039Z,22.81
2023-05-25T10:25:25.210Z,22.89
2023-05-25T10:27:10.768Z,22.90
2023-05-25T10:28:51.091Z,22.96
2023-05-25T10:30:24.633Z,22.96
2023-05-25T10:31:57.824Z,23.01
2023-05-25T10:35:03.125Z,23.16
2023-05-25T10:36:35.401Z,23.17
2023-05-25T10:38:07.860Z,23.24
2023-05-25T10:39:44.981Z,23.33
2023-05-25T10:41:17.252Z,23.36
2023-05-25T10:42:51.461Z,23.45
2023-05-25T10:44:24.114Z,23.50
2023-05-25T10:45:57.586Z,23.53
2023-05-25T10:47:32.800Z,23.60
2023-05-25T10:49:07.667Z,23.61
2023-05-25T10:50:40.022Z,23.62
2023-05-25T10:52:12.293Z,23.56
2023-05-25T10:53:46.342Z,23.55
2023-05-25T10:55:18.577Z,23.50
2023-05-25T10:57:10.506Z,23.55
2023-05-25T10:58:44.813Z,23.56
2023-05-25T11:00:17.441Z,23.58
2023-05-25T11:01:52.358Z,23.71
2023-05-25T11:03:44.717Z,23.80
2023-05-25T11:05:33.861Z,23.88
2023-05-25T11:07:09.093Z,23.92
2023-05-25T11:09:00.667Z,23.99
2023-05-25T11:10:48.689Z,24.06
2023-05-25T11:12:22.315Z,24.07
2023-05-25T11:13:54.379Z,24.08
2023-05-25T11:15:30.583Z,24.20
2023-05-25T11:17:15.451Z,24.29
2023-05-25T11:18:56.224Z,24.37
2023-05-25T11:20:30.514Z,24.29
2023-05-25T11:22:22.845Z,24.19
2023-05-25T11:23:57.993Z,24.07
2023-05-25T11:25:40.642Z,23.94
2023-05-25T11:27:13.272Z,23.84
2023-05-25T11:28:48.433Z,23.83
2023-05-25T11:30:20.604Z,23.75
2023-05-25T11:31:55.435Z,23.74
2023-05-25T11:33:28.257Z,23.73
2023-05-25T11:35:01.134Z,23.67
2023-05-25T11:36:35.822Z,23.64
2023-05-25T11:38:11.322Z,23.61
2023-05-25T11:39:50.526Z,23.60
2023-05-25T11:41:22.724Z,23.44
2023-05-25T11:42:56.228Z,23.55
2023-05-25T11:44:30.380Z,23.58
2023-05-25T11:46:03.422Z,23.64
2023-05-25T11:47:36.004Z,23.70
2023-05-25T11:49:10.250Z,23.71
2023-05-25T11:50:42.504Z,23.71
2023-05-25T11:52:16.029Z,23.72
2023-05-25T11:55:27.473Z,23.64
2023-05-25T11:57:00.491Z,23.60
2023-05-25T11:58:35.640Z,23.53
2023-05-25T12:00:10.022Z,23.39
2023-05-25T12:01:42.538Z,23.34
2023-05-25T12:03:33.739Z,23.33
2023-05-25T12:05:09.488Z,23.18
2023-05-25T12:06:43.157Z,23.13
2023-05-25T12:08:15.513Z,23.12
2023-05-25T12:09:47.991Z,23.06
2023-05-25T12:11:38.713Z,23.09
2023-05-25T12:13:11.819Z,23.05
2023-05-25T12:14:50.441Z,23.09
2023-05-25T12:16:23.382Z,23.06
2023-05-25T12:17:56.657Z,23.05
2023-05-25T12:19:28.920Z,23.00
2023-05-25T12:21:01.198Z,22.95
2023-05-25T12:22:33.413Z,22.90
2023-05-25T12:24:06.584Z,22.82
2023-05-25T12:25:49.791Z,22.88
2023-05-25T12:27:23.493Z,22.87
2023-05-25T12:29:06.573Z,22.89
2023-05-25T12:30:39.110Z,22.84
2023-05-25T12:32:11.378Z,22.81
2023-05-25T12:33:44.154Z,22.83
2023-05-25T12:35:16.430Z,22.83
2023-05-25T12:36:52.219Z,22.83
2023-05-25T12:38:24.630Z,22.82
2023-05-25T12:40:00.152Z,22.90
2023-05-25T12:41:35.283Z,22.95
2023-05-25T12:43:07.554Z,23.05
2023-05-25T12:44:39.758Z,23.12
2023-05-25T12:46:12.108Z,23.30
2023-05-25T12:47:46.269Z,23.46
2023-05-25T12:49:35.254Z,23.53
2023-05-25T12:51:07.453Z,23.62
2023-05-25T12:54:12.480Z,23.76
2023-05-25T12:55:44.810Z,23.90
2023-05-25T12:57:20.794Z,24.00
2023-05-25T12:58:56.064Z,24.10
2023-05-25T13:00:32.334Z,24.23
2023-05-25T13:02:07.661Z,24.26
2023-05-25T13:03:40.092Z,24.33
2023-05-25T13:05:38.790Z,24.40
2023-05-25T13:07:11.649Z,24.41
2023-05-25T13:08:43.863Z,24.49
2023-05-25T13:10:18.263Z,24.54
2023-05-25T13:11:50.633Z,24.53
2023-05-25T13:13:23.040Z,24.49
2023-05-25T13:14:55.376Z,24.52
2023-05-25T13:16:28.329Z,24.54
2023-05-25T13:18:00.824Z,24.56
2023-05-25T13:19:33.134Z,24.69
2023-05-25T13:21:05.365Z,24.77
2023-05-25T13:22:37.564Z,24.89
2023-05-25T13:24:09.964Z,25.00
2023-05-25T13:25:42.198Z,25.10
2023-05-25T13:27:14.338Z,25.15
2023-05-25T13:28:46.965Z,25.27
2023-05-25T13:30:21.160Z,25.28
2023-05-25T13:31:53.441Z,25.34
2023-05-25T13:33:25.664Z,25.38
2023-05-25T13:35:00.204Z,25.42
2023-05-25T13:36:35.415Z,25.41
2023-05-25T13:38:07.705Z,25.48
2023-05-25T13:39:39.982Z,25.49
2023-05-25T13:41:13.010Z,25.59
2023-05-25T13:42:45.177Z,25.64
2023-05-25T13:44:17.682Z,25.70
2023-05-25T13:45:50.322Z,25.63
2023-05-25T13:47:22.583Z,25.59
2023-05-25T13:48:54.843Z,25.56
2023-05-25T13:50:27.054Z,25.56
2023-05-25T13:51:59.401Z,25.63
2023-05-25T13:53:32.083Z,25.70
2023-05-25T13:55:04.670Z,25.70
2023-05-25T13:58:21.199Z,25.68
2023-05-25T13:59:53.484Z,25.59
2023-05-25T14:01:28.072Z,25.51
2023-05-25T14:03:00.407Z,25.55
2023-05-25T14:04:32.860Z,25.58
2023-05-25T14:06:05.241Z,25.62
2023-05-25T14:07:38.065Z,25.67
2023-05-25T14:09:12.092Z,25.73
2023-05-25T14:10:45.217Z,25.71
2023-05-25T14:12:17.642Z,25.73
2023-05-25T14:13:49.757Z,25.71
2023-05-25T14:15:21.901Z,25.75
2023-05-25T14:16:54.124Z,25.80
2023-05-25T14:18:26.272Z,25.85
2023-05-25T14:19:59.231Z,25.91
2023-05-25T14:21:31.865Z,25.93
2023-05-25T14:23:04.088Z,25.97
2023-05-25T14:24:36.292Z,25.92
2023-05-25T14:27:51.726Z,25.69
2023-05-25T14:29:23.941Z,25.62
2023-05-25T14:30:56.592Z,25.66
2023-05-25T14:32:28.852Z,25.62
2023-05-25T14:34:01.090Z,25.65
2023-05-25T14:35:33.331Z,25.65
2023-05-25T14:37:05.492Z,25.67
2023-05-25T14:38:37.669Z,25.65
2023-05-25T14:40:10.399Z,25.55
2023-05-25T14:41:42.593Z,25.55
2023-05-25T14:43:14.787Z,25.65
2023-05-25T14:44:47.086Z,25.76
2023-05-25T14:46:19.754Z,25.76
2023-05-25T14:48:00.758Z,25.76
2023-05-25T14:49:40.334Z,25.67
2023-05-25T14:51:12.497Z,25.71
2023-05-25T14:52:44.728Z,25.69
2023-05-25T14:54:17.158Z,25.75
2023-05-25T14:55:49.270Z,25.81
2023-05-25T14:57:21.506Z,25.81
2023-05-25T14:58:53.688Z,25.78
2023-05-25T15:00:26.818Z,25.75
2023-05-25T15:01:59.036Z,25.68
2023-05-25T15:03:31.392Z,25.67
2023-05-25T15:05:03.634Z,25.73
2023-05-25T15:06:37.299Z,25.79
2023-05-25T15:08:09.553Z,25.84
2023-05-25T15:09:42.727Z,25.85
2023-05-25T15:11:14.705Z,25.86
2023-05-25T15:12:46.863Z,25.64
2023-05-25T15:14:19.033Z,25.58
2023-05-25T15:15:55.001Z,25.52
2023-05-25T15:17:27.224Z,25.54
2023-05-25T15:18:59.466Z,25.51
2023-05-25T15:20:33.012Z,25.50
2023-05-25T15:22:05.331Z,25.56
2023-05-25T15:23:37.839Z,25.61
2023-05-25T15:25:10.094Z,25.60
2023-05-25T15:26:42.468Z,25.59
2023-05-25T15:28:14.773Z,25.59
2023-05-25T15:29:47.740Z,25.57
2023-05-25T15:31:19.935Z,25.60
2023-05-25T15:32:52.217Z,25.61
2023-05-25T15:34:24.458Z,25.60
2023-05-25T15:35:56.697Z,25.37
2023-05-25T15:37:30.543Z,25.10
2023-05-25T15:39:02.767Z,24.50
2023-05-25T15:40:37.460Z,24.29
2023-05-25T15:42:09.655Z,23.97
2023-05-25T15:43:41.912Z,23.72
2023-05-25T15:45:14.105Z,23.50
2023-05-25T15:46:46.465Z,23.31
2023-05-25T15:48:18.830Z,22.97
2023-05-25T15:49:51.051Z,22.72
2023-05-25T15:51:23.287Z,22.78
2023-05-25T15:52:55.487Z,22.77
2023-05-25T15:54:27.584Z,22.83
2023-05-25T15:55:59.829Z,22.92
2023-05-25T15:57:32.067Z,22.88
2023-05-25T15:59:05.280Z,22.79
2023-05-25T16:02:17.164Z,22.74
2023-05-25T16:03:49.558Z,22.66
2023-05-25T16:05:21.776Z,22.61
2023-05-25T16:06:53.999Z,22.62
2023-05-25T16:08:26.387Z,22.63
2023-05-25T16:09:58.576Z,22.61
2023-05-25T16:11:32.318Z,22.68
2023-05-25T16:13:04.588Z,22.72
2023-05-25T16:14:36.820Z,22.68
2023-05-25T16:16:09.240Z,22.59
2023-05-25T16:17:41.557Z,22.68
2023-05-25T16:19:14.209Z,22.73
2023-05-25T16:20:46.780Z,22.74
2023-05-25T16:22:19.035Z,22.79
2023-05-25T16:23:51.669Z,22.88
2023-05-25T16:25:23.795Z,22.89
2023-05-25T16:26:57.998Z,22.95
2023-05-25T16:28:30.258Z,22.87
2023-05-25T16:30:02.465Z,22.53
2023-05-25T16:31:35.139Z,22.38
2023-05-25T16:33:07.497Z,22.53
2023-05-25T16:34:39.728Z,22.53
2023-05-25T16:36:13.953Z,22.50
2023-05-25T16:37:46.293Z,22.54
2023-05-25T16:39:20.936Z,22.43
2023-05-25T16:40:53.161Z,22.23
2023-05-25T16:42:26.764Z,21.90
2023-05-25T16:43:59.302Z,21.56
2023-05-25T16:45:31.572Z,21.38
2023-05-25T16:47:03.807Z,21.01
2023-05-25T16:48:36.054Z,20.84
2023-05-25T16:50:08.795Z,20.75
2023-05-25T16:51:41.189Z,20.57
2023-05-25T16:53:13.452Z,20.46
2023-05-25T16:54:45.769Z,20.34
2023-05-25T16:56:18.762Z,20.25
2023-05-25T16:57:51.025Z,20.10
2023-05-25T16:59:23.236Z,19.87
2023-05-25T17:02:56.438Z,19.57
2023-05-25T17:04:28.642Z,19.40
2023-05-25T17:06:00.930Z,19.23
2023-05-25T17:07:36.606Z,19.11
2023-05-25T17:09:09.646Z,18.99
2023-05-25T17:10:43.896Z,18.88
2023-05-25T17:12:16.235Z,18.67
2023-05-25T17:13:48.564Z,18.33
2023-05-25T17:15:20.935Z,18.30
2023-05-25T17:16:53.229Z,18.29
2023-05-25T17:18:25.493Z,18.28
2023-05-25T17:19:57.723Z,18.16
2023-05-25T17:21:30.145Z,18.14
2023-05-25T17:23:02.359Z,18.11
2023-05-25T17:24:34.527Z,18.13
2023-05-25T17:26:06.704Z,18.12
2023-05-25T17:27:38.917Z,18.11
2023-05-25T17:29:11.264Z,18.03
2023-05-25T17:30:43.461Z,18.07
2023-05-25T17:33:48.485Z,17.96
2023-05-25T17:35:20.771Z,17.90
2023-05-25T17:36:53.023Z,17.83
2023-05-25T17:38:25.778Z,17.73
2023-05-25T17:39:58.017Z,17.69
2023-05-25T17:41:31.233Z,17.68
2023-05-25T17:43:03.673Z,17.63
2023-05-25T17:44:40.497Z,17.58
2023-05-25T17:46:12.758Z,17.53
2023-05-25T17:47:45.177Z,17.48
2023-05-25T17:49:17.659Z,17.49
2023-05-25T17:50:49.945Z,17.52
2023-05-25T17:52:22.187Z,17.53
2023-05-25T17:53:54.375Z,17.56
2023-05-25T17:55:27.437Z,17.53
2023-05-25T17:56:59.772Z,17.51
2023-05-25T17:58:34.572Z,17.51
2023-05-25T18:00:07.466Z,17.50
2023-05-25T18:01:40.194Z,17.48
2023-05-25T18:03:12.645Z,17.45
2023-05-25T18:06:16.938Z,17.39
2023-05-25T18:07:49.160Z,17.36
2023-05-25T18:09:21.598Z,17.33
2023-05-25T18:10:53.872Z,17.32
2023-05-25T18:12:26.335Z,17.29
2023-05-25T18:13:58.531Z,17.28
2023-05-25T18:15:30.669Z,17.24
2023-05-25T19:09:44.390Z,16.80
2023-05-25T19:11:17.100Z,16.82
2023-05-25T19:12:49.255Z,16.83
2023-05-25T19:14:21.420Z,16.84
2023-05-25T19:15:53.624Z,16.82
2023-05-25T19:17:25.936Z,16.81
2023-05-25T19:18:58.132Z,16.83
2023-05-25T19:20:32.972Z,16.84
2023-05-25T19:22:06.789Z,16.85
2023-05-25T19:23:39.058Z,16.90
2023-05-25T19:25:11.271Z,16.90
2023-05-25T19:26:43.426Z,16.90
2023-05-25T19:28:15.702Z,16.90
2023-05-25T19:29:48.391Z,16.89
2023-05-25T19:31:21.935Z,16.88
2023-05-25T19:32:54.366Z,16.87
2023-05-25T19:34:26.595Z,16.87
2023-05-25T19:36:00.071Z,16.89
2023-05-25T19:37:32.246Z,16.83
2023-05-25T19:39:05.343Z,16.81
2023-05-25T19:40:37.599Z,16.79
2023-05-25T19:42:09.923Z,16.73
2023-05-25T19:43:42.378Z,16.71
2023-05-25T19:45:14.527Z,16.69
2023-05-25T19:46:46.676Z,16.68
2023-05-25T19:48:20.666Z,16.64
2023-05-25T19:49:53.659Z,16.64
2023-05-25T19:51:26.221Z,16.65
2023-05-25T19:53:01.531Z,16.62
2023-05-25T19:54:33.804Z,16.65
2023-05-25T19:56:06.303Z,16.64
2023-05-25T19:57:38.949Z,16.61
2023-05-25T19:59:11.128Z,16.58
2023-05-25T20:00:43.356Z,16.52
2023-05-25T20:02:15.623Z,16.49
2023-05-25T20:03:47.932Z,16.49
2023-05-25T20:05:22.431Z,16.50
2023-05-25T20:06:54.896Z,16.44
2023-05-25T20:08:27.821Z,16.47
2023-05-25T20:10:00.239Z,16.47
2023-05-25T20:11:32.526Z,16.46
2023-05-25T20:14:38.627Z,16.50
2023-05-25T20:16:10.894Z,16.47
2023-05-25T20:17:43.141Z,16.45
2023-05-25T20:19:15.685Z,16.37
2023-05-25T20:20:47.924Z,16.33
2023-05-25T20:22:20.230Z,16.27
2023-05-25T20:23:52.462Z,16.22
2023-05-25T20:25:24.659Z,16.18
2023-05-25T20:27:00.374Z,16.13
2023-05-25T20:28:32.553Z,16.09
2023-05-25T20:30:08.458Z,16.09
2023-05-25T20:31:40.879Z,16.04
2023-05-25T20:33:13.136Z,16.03
2023-05-25T20:34:45.375Z,16.01
2023-05-25T20:36:17.740Z,15.96
2023-05-25T20:37:49.969Z,15.95
2023-05-25T20:39:22.148Z,15.94
2023-05-25T20:40:54.351Z,15.90
2023-05-25T20:42:26.580Z,15.84
2023-05-25T20:43:58.906Z,15.84
2023-05-25T20:45:31.423Z,15.86
2023-05-25T20:48:40.219Z,15.86
2023-05-25T20:50:13.396Z,15.84
2023-05-25T20:51:50.264Z,15.86
2023-05-25T20:53:22.758Z,15.88
2023-05-25T20:54:55.066Z,15.85
2023-05-25T20:56:27.863Z,15.79
2023-05-25T20:58:01.427Z,15.72
2023-05-25T20:59:33.647Z,15.67
2023-05-25T21:01:06.519Z,15.67
2023-05-25T21:02:38.856Z,15.65
2023-05-25T21:04:11.347Z,15.59
2023-05-25T21:05:43.812Z,15.60
2023-05-25T21:07:16.190Z,15.61
2023-05-25T21:08:48.376Z,15.62
2023-05-25T21:10:20.543Z,15.65
2023-05-25T21:11:52.625Z,15.64
2023-05-25T21:13:24.817Z,15.64
2023-05-25T21:14:57.024Z,15.68
2023-05-25T21:16:29.421Z,15.68
2023-05-25T21:18:03.813Z,15.71